Time;durP1;ratioP1;P1;durP2;ratioP2;P2;SDS_P1;SDS_P2;PMS_P1;PMS_P2;Temp;Humidity;BMP_temperature;BMP_pressure;BME280_temperature;BME280_humidity;BME280_pressure;Samples;Min_cycle;Max_cycle;Signal;HPM_P1;HPM_P2
2024/01/24 00:00:12;;;;;;;;;;;11.70;99.90;;;;;;5113005;28;20432;-33
2024/01/24 00:02:39;;;;;;;;;;;11.80;99.90;;;;;;5110982;27;19924;-31
2024/01/24 00:05:06;;;;;;;;;;;11.70;99.90;;;;;;5107371;28;19927;-34
2024/01/24 00:07:34;;;;;;;;;;;11.80;99.90;;;;;;5128506;27;19924;-32
2024/01/24 00:10:02;;;;;;;;;;;11.80;99.90;;;;;;5113386;28;19980;-33
2024/01/24 00:12:29;;;;;;;;;;;11.80;99.90;;;;;;5104750;28;19923;-34
2024/01/24 00:14:55;;;;;;;;;;;11.80;99.90;;;;;;5109617;28;19924;-33
2024/01/24 00:17:22;;;;;;;;;;;11.80;99.90;;;;;;5109353;28;19932;-34
2024/01/24 00:19:49;;;;;;;;;;;11.80;99.90;;;;;;5110174;28;20345;-32
2024/01/24 00:22:15;;;;;;;;;;;11.80;99.90;;;;;;5110363;28;20052;-32
2024/01/24 00:24:43;;;;;;;;;;;11.90;99.90;;;;;;5113937;28;19924;-34
2024/01/24 00:27:09;;;;;;;;;;;11.80;99.90;;;;;;5109513;28;20284;-32
2024/01/24 00:29:36;;;;;;;;;;;11.90;99.90;;;;;;5096648;28;20379;-34
2024/01/24 00:32:03;;;;;;;;;;;11.90;99.90;;;;;;5107618;28;19931;-34
2024/01/24 00:34:30;;;;;;;;;;;12.00;99.90;;;;;;5113907;28;20014;-33
2024/01/24 00:36:56;;;;;;;;;;;12.00;99.90;;;;;;5112048;27;19953;-35
2024/01/24 00:39:23;;;;;;;;;;;12.00;99.90;;;;;;5111306;28;19973;-33
2024/01/24 00:41:52;;;;;;;;;;;12.10;99.90;;;;;;5111147;27;20371;-33
2024/01/24 00:44:18;;;;;;;;;;;12.10;99.90;;;;;;5108746;28;19939;-35
2024/01/24 00:46:45;;;;;;;;;;;12.00;99.90;;;;;;5094636;28;19927;-33
2024/01/24 00:49:12;;;;;;;;;;;12.00;99.90;;;;;;5110768;28;19924;-33
2024/01/24 00:51:39;;;;;;;;;;;12.10;99.90;;;;;;5111554;28;19975;-33
2024/01/24 00:54:06;;;;;;;;;;;12.10;99.90;;;;;;5110400;28;19967;-33
2024/01/24 00:56:32;;;;;;;;;;;12.10;99.90;;;;;;5102679;28;19924;-33
2024/01/24 00:59:00;;;;;;;;;;;12.10;99.90;;;;;;5096677;28;19932;-34
2024/01/24 01:01:27;;;;;;;;;;;12.10;99.90;;;;;;5111637;28;19977;-32
2024/01/24 01:03:54;;;;;;;;;;;12.20;99.90;;;;;;5110055;28;19924;-34
2024/01/24 01:06:22;;;;;;;;;;;12.20;99.90;;;;;;5108520;28;19923;-33
2024/01/24 01:08:48;;;;;;;;;;;12.20;99.90;;;;;;5109210;28;19969;-33
2024/01/24 01:11:15;;;;;;;;;;;12.30;99.90;;;;;;5109215;28;21298;-33
2024/01/24 01:13:42;;;;;;;;;;;12.20;99.90;;;;;;5106327;28;20451;-32
2024/01/24 01:16:10;;;;;;;;;;;12.20;99.90;;;;;;5109909;28;19932;-33
2024/01/24 01:18:37;;;;;;;;;;;12.20;99.90;;;;;;5107583;28;20280;-33
2024/01/24 01:21:04;;;;;;;;;;;12.30;99.90;;;;;;5103090;28;19924;-32
2024/01/24 01:23:31;;;;;;;;;;;12.30;99.90;;;;;;5109984;28;20353;-34
2024/01/24 01:25:57;;;;;;;;;;;12.30;99.90;;;;;;5108961;28;19932;-34
2024/01/24 01:28:24;;;;;;;;;;;12.30;99.90;;;;;;5109743;28;20287;-33
2024/01/24 01:30:51;;;;;;;;;;;12.30;99.90;;;;;;5108293;28;20272;-33
2024/01/24 01:33:19;;;;;;;;;;;12.30;99.90;;;;;;5108897;28;20027;-33
2024/01/24 01:35:45;;;;;;;;;;;12.30;99.90;;;;;;5109611;27;19933;-34
2024/01/24 01:38:13;;;;;;;;;;;12.30;99.90;;;;;;5108684;28;19973;-32
2024/01/24 01:40:40;;;;;;;;;;;12.30;99.90;;;;;;5112937;28;19924;-33
2024/01/24 01:43:09;;;;;;;;;;;12.20;99.90;;;;;;5107699;28;19923;-32
2024/01/24 01:45:36;;;;;;;;;;;12.20;99.90;;;;;;5107937;28;19928;-32
2024/01/24 01:48:02;;;;;;;;;;;12.20;99.90;;;;;;5107473;28;19975;-32
2024/01/24 01:50:30;;;;;;;;;;;12.20;99.90;;;;;;5103678;28;19932;-33
2024/01/24 01:52:57;;;;;;;;;;;12.20;99.90;;;;;;5109342;27;19924;-32
2024/01/24 01:55:24;;;;;;;;;;;12.20;99.90;;;;;;5108964;28;20016;-33
2024/01/24 01:57:50;;;;;;;;;;;12.30;99.90;;;;;;5110587;28;19955;-32
2024/01/24 02:00:20;;;;;;;;;;;12.20;99.90;;;;;;5111870;28;19924;-32
2024/01/24 02:02:47;;;;;;;;;;;12.20;99.90;;;;;;5109924;28;19967;-33
2024/01/24 02:05:14;;;;;;;;;;;12.20;99.90;;;;;;5109956;28;19923;-33
2024/01/24 02:07:44;;;;;;;;;;;12.20;99.90;;;;;;5108548;28;19931;-33
2024/01/24 02:10:10;;;;;;;;;;;12.20;99.90;;;;;;5105757;28;19931;-34
2024/01/24 02:12:37;;;;;;;;;;;12.20;99.90;;;;;;5110076;28;19967;-32
2024/01/24 02:15:04;;;;;;;;;;;12.20;99.90;;;;;;5107041;28;19924;-32
2024/01/24 02:17:31;;;;;;;;;;;12.30;99.90;;;;;;5105599;28;19973;-33
2024/01/24 02:19:57;;;;;;;;;;;12.30;99.90;;;;;;5107608;28;19924;-34
2024/01/24 02:22:24;;;;;;;;;;;12.30;99.90;;;;;;5109828;28;19923;-32
2024/01/24 02:24:52;;;;;;;;;;;12.30;99.90;;;;;;5125912;27;19928;-32
2024/01/24 02:27:18;;;;;;;;;;;12.30;99.90;;;;;;5114126;28;19968;-34
2024/01/24 02:29:45;;;;;;;;;;;12.20;99.90;;;;;;5111673;28;19923;-32
2024/01/24 02:32:12;;;;;;;;;;;12.20;99.90;;;;;;5110851;28;19924;-34
2024/01/24 02:34:38;;;;;;;;;;;12.20;99.90;;;;;;5112886;28;19923;-32
2024/01/24 02:37:05;;;;;;;;;;;12.20;99.90;;;;;;5115472;28;19924;-32
2024/01/24 02:39:31;;;;;;;;;;;12.20;99.90;;;;;;5112051;28;19924;-33
2024/01/24 02:41:59;;;;;;;;;;;12.10;99.90;;;;;;5111440;28;19924;-33
2024/01/24 02:44:26;;;;;;;;;;;12.10;99.90;;;;;;5101341;28;19923;-33
2024/01/24 02:46:53;;;;;;;;;;;12.10;99.90;;;;;;5131255;28;20424;-33
2024/01/24 02:49:19;;;;;;;;;;;12.00;99.90;;;;;;5132957;28;19928;-32
2024/01/24 02:51:46;;;;;;;;;;;11.90;99.90;;;;;;5098697;28;20323;-33
2024/01/24 02:54:13;;;;;;;;;;;11.90;99.90;;;;;;5105026;28;19927;-32
2024/01/24 02:56:39;;;;;;;;;;;11.80;99.90;;;;;;5131882;27;19924;-33
2024/01/24 02:59:07;;;;;;;;;;;11.70;99.90;;;;;;5114981;27;19928;-32
2024/01/24 03:01:34;;;;;;;;;;;11.60;99.90;;;;;;5113986;27;19992;-33
2024/01/24 03:04:01;;;;;;;;;;;11.60;99.90;;;;;;5117919;27;19928;-32
2024/01/24 03:06:27;;;;;;;;;;;11.50;99.90;;;;;;5114218;27;19930;-33
2024/01/24 03:08:56;;;;;;;;;;;11.40;99.90;;;;;;5136655;27;19927;-34
2024/01/24 03:11:22;;;;;;;;;;;11.40;99.90;;;;;;5113972;28;19931;-32
2024/01/24 03:13:49;;;;;;;;;;;11.40;99.90;;;;;;5133641;27;20338;-32
2024/01/24 03:16:17;;;;;;;;;;;11.30;99.90;;;;;;5112579;27;20703;-33
2024/01/24 03:18:44;;;;;;;;;;;11.30;99.90;;;;;;5114826;28;19928;-33
2024/01/24 03:21:15;;;;;;;;;;;11.30;99.90;;;;;;5114902;27;19930;-33
2024/01/24 03:23:42;;;;;;;;;;;11.30;99.90;;;;;;5115219;27;19968;-34
2024/01/24 03:26:08;;;;;;;;;;;11.20;99.90;;;;;;5112983;27;19923;-35
2024/01/24 03:28:35;;;;;;;;;;;11.20;99.90;;;;;;5115441;27;19931;-34
2024/01/24 03:31:02;;;;;;;;;;;11.10;99.90;;;;;;5116799;27;20441;-34
2024/01/24 03:33:30;;;;;;;;;;;11.10;99.90;;;;;;5118114;27;19927;-34
2024/01/24 03:35:56;;;;;;;;;;;11.10;99.90;;;;;;5138133;27;19923;-33
2024/01/24 03:38:23;;;;;;;;;;;11.10;99.90;;;;;;5117612;27;20371;-32
2024/01/24 03:40:50;;;;;;;;;;;11.10;99.90;;;;;;5107371;27;20447;-32
2024/01/24 03:43:16;;;;;;;;;;;11.10;99.90;;;;;;5129561;27;20288;-33
2024/01/24 03:45:43;;;;;;;;;;;11.10;99.90;;;;;;5105158;27;19999;-34
2024/01/24 03:48:10;;;;;;;;;;;11.10;99.90;;;;;;5105359;27;19959;-33
2024/01/24 03:50:38;;;;;;;;;;;11.00;99.90;;;;;;5108824;27;20276;-34
2024/01/24 03:53:05;;;;;;;;;;;11.00;99.90;;;;;;5110897;27;20014;-33
2024/01/24 03:55:31;;;;;;;;;;;11.00;99.90;;;;;;5122371;27;19995;-33
2024/01/24 03:57:58;;;;;;;;;;;11.00;99.90;;;;;;5111384;27;20062;-33
2024/01/24 04:00:25;;;;;;;;;;;11.00;99.90;;;;;;5114134;27;19977;-35
2024/01/24 04:02:51;;;;;;;;;;;11.00;99.90;;;;;;5115483;27;19953;-33
2024/01/24 04:05:18;;;;;;;;;;;11.00;99.90;;;;;;5122838;27;19968;-33
2024/01/24 04:07:46;;;;;;;;;;;11.00;99.90;;;;;;5116525;27;19976;-34
2024/01/24 04:10:12;;;;;;;;;;;11.00;99.90;;;;;;5115654;27;19973;-33
2024/01/24 04:12:39;;;;;;;;;;;11.00;99.90;;;;;;5115924;27;19971;-34
2024/01/24 04:15:06;;;;;;;;;;;11.00;99.90;;;;;;5116725;27;19927;-33
2024/01/24 04:17:33;;;;;;;;;;;11.00;99.90;;;;;;5116616;27;20340;-33
2024/01/24 04:20:00;;;;;;;;;;;11.00;99.90;;;;;;5122164;27;19924;-33
2024/01/24 04:22:26;;;;;;;;;;;11.00;99.90;;;;;;5116293;27;19931;-34
2024/01/24 04:24:54;;;;;;;;;;;11.00;99.90;;;;;;5116601;27;19980;-34
2024/01/24 04:27:21;;;;;;;;;;;11.00;99.90;;;;;;5108170;27;19976;-33
2024/01/24 04:29:47;;;;;;;;;;;11.10;99.90;;;;;;5117896;27;19988;-33
2024/01/24 04:32:14;;;;;;;;;;;11.10;99.90;;;;;;5116433;27;19924;-35
2024/01/24 04:34:41;;;;;;;;;;;11.00;99.90;;;;;;5115862;27;20321;-34
2024/01/24 04:37:08;;;;;;;;;;;11.00;99.90;;;;;;5122914;27;19975;-33
2024/01/24 04:39:34;;;;;;;;;;;11.00;99.90;;;;;;5103739;27;19928;-31
2024/01/24 04:42:03;;;;;;;;;;;11.00;99.90;;;;;;5112426;27;19927;-33
2024/01/24 04:44:30;;;;;;;;;;;11.00;99.90;;;;;;5122469;27;19930;-33
2024/01/24 04:46:56;;;;;;;;;;;11.00;99.90;;;;;;5116325;27;19924;-32
2024/01/24 04:49:23;;;;;;;;;;;10.90;99.90;;;;;;5115206;27;19931;-32
2024/01/24 04:51:50;;;;;;;;;;;10.90;99.90;;;;;;5115220;27;20299;-33
2024/01/24 04:54:16;;;;;;;;;;;10.90;99.90;;;;;;5116299;27;19923;-33
2024/01/24 04:56:44;;;;;;;;;;;10.80;99.90;;;;;;5103896;28;19977;-32
2024/01/24 04:59:12;;;;;;;;;;;10.80;99.90;;;;;;5107004;27;19972;-34
2024/01/24 05:01:38;;;;;;;;;;;10.70;99.90;;;;;;5111698;27;20014;-33
2024/01/24 05:04:05;;;;;;;;;;;10.80;99.90;;;;;;5115401;27;20329;-33
2024/01/24 05:06:32;;;;;;;;;;;10.80;99.90;;;;;;5116000;27;19968;-34
2024/01/24 05:08:59;;;;;;;;;;;10.70;99.90;;;;;;5132323;27;19952;-33
2024/01/24 05:11:25;;;;;;;;;;;10.70;99.90;;;;;;5112791;27;19963;-33
2024/01/24 05:13:53;;;;;;;;;;;10.70;99.90;;;;;;5112335;27;19953;-35
2024/01/24 05:16:21;;;;;;;;;;;10.70;99.90;;;;;;5105176;28;20334;-33
2024/01/24 05:18:47;;;;;;;;;;;10.70;99.90;;;;;;5130656;27;20276;-34
2024/01/24 05:21:14;;;;;;;;;;;10.70;99.90;;;;;;5112812;27;19935;-33
2024/01/24 05:23:42;;;;;;;;;;;10.60;99.90;;;;;;5113032;27;19931;-33
2024/01/24 05:26:09;;;;;;;;;;;10.60;99.90;;;;;;5115251;27;19924;-33
2024/01/24 05:28:36;;;;;;;;;;;10.60;99.90;;;;;;5110814;27;19968;-33
2024/01/24 05:31:02;;;;;;;;;;;10.50;99.90;;;;;;5111370;27;19972;-33
2024/01/24 05:33:30;;;;;;;;;;;10.50;99.90;;;;;;5110909;27;19931;-33
2024/01/24 05:35:57;;;;;;;;;;;10.50;99.90;;;;;;5113606;27;19931;-32
2024/01/24 05:38:24;;;;;;;;;;;10.40;99.90;;;;;;5114869;27;19928;-32
2024/01/24 05:40:50;;;;;;;;;;;10.40;99.90;;;;;;5113254;27;20299;-33
2024/01/24 05:43:17;;;;;;;;;;;10.30;99.90;;;;;;5112425;27;19966;-32
2024/01/24 05:45:43;;;;;;;;;;;10.30;99.90;;;;;;5111190;27;19935;-33
2024/01/24 05:48:10;;;;;;;;;;;10.20;99.90;;;;;;5114642;27;19981;-32
2024/01/24 05:50:38;;;;;;;;;;;10.30;99.90;;;;;;5108605;27;19923;-35
2024/01/24 05:53:05;;;;;;;;;;;10.20;99.90;;;;;;5113403;27;19980;-35
2024/01/24 05:55:31;;;;;;;;;;;10.20;99.90;;;;;;5113866;27;19969;-32
2024/01/24 05:57:58;;;;;;;;;;;10.20;99.90;;;;;;5113506;27;19927;-33
2024/01/24 06:00:24;;;;;;;;;;;10.20;99.90;;;;;;5125546;27;19932;-32
2024/01/24 06:02:51;;;;;;;;;;;10.10;99.90;;;;;;5110169;27;20439;-34
2024/01/24 06:05:19;;;;;;;;;;;10.10;99.90;;;;;;5133181;27;19984;-32
2024/01/24 06:07:49;;;;;;;;;;;10.10;99.90;;;;;;5132768;27;20003;-33
2024/01/24 06:10:16;;;;;;;;;;;10.10;99.90;;;;;;5110439;27;19978;-32
2024/01/24 06:12:42;;;;;;;;;;;10.00;99.90;;;;;;5104436;27;20034;-32
2024/01/24 06:15:10;;;;;;;;;;;10.00;99.90;;;;;;5128213;27;19953;-32
2024/01/24 06:17:36;;;;;;;;;;;9.90;99.90;;;;;;5114183;27;19924;-32
2024/01/24 06:20:03;;;;;;;;;;;10.00;99.90;;;;;;5112850;27;19927;-33
2024/01/24 06:22:29;;;;;;;;;;;9.90;99.90;;;;;;5111498;28;19923;-33
2024/01/24 06:25:00;;;;;;;;;;;9.90;99.90;;;;;;5125311;27;19924;-34
2024/01/24 06:27:27;;;;;;;;;;;9.90;99.90;;;;;;5112730;27;20370;-33
2024/01/24 06:29:53;;;;;;;;;;;9.90;99.90;;;;;;5097603;27;19931;-33
2024/01/24 06:32:21;;;;;;;;;;;9.90;99.90;;;;;;5114321;27;20431;-32
2024/01/24 06:34:47;;;;;;;;;;;9.90;99.90;;;;;;5112646;28;19994;-32
2024/01/24 06:37:14;;;;;;;;;;;9.90;99.90;;;;;;5111177;28;19977;-34
2024/01/24 06:39:41;;;;;;;;;;;9.90;99.90;;;;;;5111933;28;20007;-33
2024/01/24 06:42:10;;;;;;;;;;;9.90;99.90;;;;;;5131445;28;19975;-34
2024/01/24 06:44:37;;;;;;;;;;;9.90;99.90;;;;;;5108449;28;19927;-33
2024/01/24 06:47:04;;;;;;;;;;;9.90;99.90;;;;;;5111224;28;19923;-33
2024/01/24 06:49:30;;;;;;;;;;;9.90;99.90;;;;;;5111599;28;19927;-34
2024/01/24 06:51:57;;;;;;;;;;;9.90;99.90;;;;;;5111533;28;19988;-33
2024/01/24 06:54:23;;;;;;;;;;;10.00;99.90;;;;;;5111296;28;20428;-32
2024/01/24 06:56:50;;;;;;;;;;;9.90;99.90;;;;;;5112018;28;19928;-32
2024/01/24 06:59:18;;;;;;;;;;;9.90;99.90;;;;;;5114631;28;19969;-33
2024/01/24 07:01:45;;;;;;;;;;;9.90;99.90;;;;;;5110346;28;19968;-33
2024/01/24 07:04:11;;;;;;;;;;;9.90;99.90;;;;;;5109731;27;19985;-33
2024/01/24 07:06:38;;;;;;;;;;;9.90;99.90;;;;;;5113044;28;20414;-33
2024/01/24 07:09:05;;;;;;;;;;;9.90;99.90;;;;;;5113893;28;20001;-33
2024/01/24 07:11:31;;;;;;;;;;;9.80;99.90;;;;;;5110215;28;19924;-33
2024/01/24 07:13:58;;;;;;;;;;;9.70;99.90;;;;;;5106533;28;19923;-32
2024/01/24 07:16:26;;;;;;;;;;;9.80;99.90;;;;;;5108118;28;19976;-33
2024/01/24 07:18:52;;;;;;;;;;;9.80;99.90;;;;;;5126528;28;21171;-32
2024/01/24 07:21:19;;;;;;;;;;;9.80;99.90;;;;;;5113591;28;19935;-33
2024/01/24 07:23:46;;;;;;;;;;;9.80;99.90;;;;;;5110939;27;19927;-34
2024/01/24 07:26:12;;;;;;;;;;;9.80;99.90;;;;;;5105666;28;19933;-33
2024/01/24 07:28:39;;;;;;;;;;;9.90;99.90;;;;;;5112678;28;20380;-34
2024/01/24 07:31:06;;;;;;;;;;;9.80;99.90;;;;;;5126936;28;20023;-34
2024/01/24 07:33:34;;;;;;;;;;;9.90;99.90;;;;;;5105987;28;20014;-29
2024/01/24 07:36:01;;;;;;;;;;;9.90;99.90;;;;;;5104241;28;20036;-32
2024/01/24 07:38:27;;;;;;;;;;;9.90;99.90;;;;;;5107740;28;20427;-33
2024/01/24 07:40:54;;;;;;;;;;;9.90;99.90;;;;;;5099401;28;19980;-32
2024/01/24 07:43:22;;;;;;;;;;;9.90;99.90;;;;;;5129133;27;19972;-33
2024/01/24 07:45:48;;;;;;;;;;;9.90;99.90;;;;;;5129915;27;19927;-33
2024/01/24 07:48:15;;;;;;;;;;;9.90;99.90;;;;;;5106878;27;19969;-32
2024/01/24 07:50:43;;;;;;;;;;;9.80;99.90;;;;;;5114065;27;19968;-33
2024/01/24 07:53:10;;;;;;;;;;;9.80;99.90;;;;;;5129047;27;19976;-33
2024/01/24 07:55:36;;;;;;;;;;;9.80;99.90;;;;;;5115749;27;19968;-31
2024/01/24 07:58:03;;;;;;;;;;;9.80;99.90;;;;;;5114040;27;19923;-32
2024/01/24 08:00:31;;;;;;;;;;;9.80;99.90;;;;;;5107611;28;19931;-33
2024/01/24 08:02:58;;;;;;;;;;;9.80;99.90;;;;;;5104829;27;20412;-32
2024/01/24 08:05:24;;;;;;;;;;;9.70;99.90;;;;;;5110203;27;19971;-32
2024/01/24 08:07:52;;;;;;;;;;;9.80;99.90;;;;;;5115322;27;19967;-32
2024/01/24 08:10:19;;;;;;;;;;;9.70;99.90;;;;;;5134022;27;19924;-31
2024/01/24 08:12:45;;;;;;;;;;;9.70;99.90;;;;;;5133764;27;19927;-32
2024/01/24 08:15:12;;;;;;;;;;;9.70;99.90;;;;;;5110434;27;20387;-32
2024/01/24 08:17:39;;;;;;;;;;;9.70;99.90;;;;;;5117139;27;19984;-32
2024/01/24 08:20:08;;;;;;;;;;;9.60;99.90;;;;;;5116486;27;19966;-32
2024/01/24 08:22:35;;;;;;;;;;;9.70;99.90;;;;;;5117774;27;20347;-32
2024/01/24 08:25:03;;;;;;;;;;;9.60;99.90;;;;;;5126663;27;20349;-32
2024/01/24 08:27:30;;;;;;;;;;;9.60;99.90;;;;;;5114279;28;19924;-32
2024/01/24 08:29:56;;;;;;;;;;;9.60;99.90;;;;;;5097200;28;20022;-33
2024/01/24 08:32:23;;;;;;;;;;;9.60;99.90;;;;;;5097171;28;19966;-32
2024/01/24 08:34:52;;;;;;;;;;;9.60;99.90;;;;;;5096950;28;19923;-33
2024/01/24 08:37:19;;;;;;;;;;;9.50;99.90;;;;;;5115508;27;20000;-33
2024/01/24 08:39:45;;;;;;;;;;;9.60;99.90;;;;;;5096689;28;20424;-32
2024/01/24 08:42:13;;;;;;;;;;;9.60;99.90;;;;;;5096658;28;19923;-32
2024/01/24 08:44:40;;;;;;;;;;;9.60;99.90;;;;;;5114870;28;20344;-33
2024/01/24 08:47:07;;;;;;;;;;;9.60;99.90;;;;;;5096456;28;19928;-33
2024/01/24 08:49:33;;;;;;;;;;;9.60;99.90;;;;;;5114592;28;20268;-33
2024/01/24 08:52:00;;;;;;;;;;;9.60;99.90;;;;;;5096407;28;19988;-33
2024/01/24 08:54:26;;;;;;;;;;;9.60;99.90;;;;;;5096563;28;19935;-32
2024/01/24 08:56:53;;;;;;;;;;;9.70;99.90;;;;;;5096371;28;19955;-32
2024/01/24 08:59:21;;;;;;;;;;;9.60;99.90;;;;;;5103252;27;19931;-32
2024/01/24 09:01:48;;;;;;;;;;;9.70;99.90;;;;;;5116909;27;19923;-32
2024/01/24 09:04:15;;;;;;;;;;;9.60;99.90;;;;;;5116668;27;19924;-32
2024/01/24 09:06:42;;;;;;;;;;;9.60;99.90;;;;;;5116830;27;19928;-32
2024/01/24 09:09:13;;;;;;;;;;;9.60;99.90;;;;;;5116988;27;20386;-33
2024/01/24 09:11:40;;;;;;;;;;;9.70;99.90;;;;;;5116418;27;20367;-32
2024/01/24 09:14:07;;;;;;;;;;;9.70;99.90;;;;;;5116255;27;19987;-33
2024/01/24 09:16:35;;;;;;;;;;;9.70;99.90;;;;;;5116597;27;19999;-33
2024/01/24 09:19:01;;;;;;;;;;;9.70;99.90;;;;;;5116322;27;19923;-31
2024/01/24 09:21:28;;;;;;;;;;;9.70;99.90;;;;;;5134654;27;19963;-33
2024/01/24 09:23:54;;;;;;;;;;;9.80;99.90;;;;;;5107141;28;20440;-32
2024/01/24 09:26:21;;;;;;;;;;;9.80;99.90;;;;;;5095985;28;20019;-33
2024/01/24 09:28:48;;;;;;;;;;;9.80;99.90;;;;;;5095888;27;19931;-34
2024/01/24 09:31:14;;;;;;;;;;;9.90;99.90;;;;;;5133662;27;19923;-33
2024/01/24 09:33:42;;;;;;;;;;;9.90;99.90;;;;;;5115676;27;19924;-32
2024/01/24 09:36:09;;;;;;;;;;;10.00;99.90;;;;;;5141426;27;20394;-31
2024/01/24 09:38:36;;;;;;;;;;;9.90;99.90;;;;;;5137143;27;20022;-33
2024/01/24 09:41:03;;;;;;;;;;;9.90;99.90;;;;;;5136468;27;19968;-34
2024/01/24 09:43:31;;;;;;;;;;;9.90;99.90;;;;;;5125766;27;19927;-33
2024/01/24 09:45:58;;;;;;;;;;;10.00;99.90;;;;;;5116261;27;19993;-32
2024/01/24 09:48:25;;;;;;;;;;;10.00;99.90;;;;;;5115525;27;19923;-31
2024/01/24 09:50:53;;;;;;;;;;;10.00;99.90;;;;;;5116087;27;19973;-33
2024/01/24 09:53:20;;;;;;;;;;;10.00;99.90;;;;;;5116061;27;19927;-33
2024/01/24 09:55:46;;;;;;;;;;;10.10;99.90;;;;;;5133861;27;19978;-33
2024/01/24 09:58:13;;;;;;;;;;;10.10;99.90;;;;;;5115433;27;20367;-32
2024/01/24 10:00:41;;;;;;;;;;;10.20;99.90;;;;;;5115488;27;19923;-34
2024/01/24 10:03:07;;;;;;;;;;;10.20;99.90;;;;;;5133704;27;20409;-33
2024/01/24 10:05:34;;;;;;;;;;;10.30;99.90;;;;;;5115131;27;19923;-34
2024/01/24 10:08:02;;;;;;;;;;;10.30;99.90;;;;;;5115206;27;19972;-32
2024/01/24 10:10:29;;;;;;;;;;;10.30;99.90;;;;;;5133641;27;19930;-33
2024/01/24 10:12:56;;;;;;;;;;;10.30;99.90;;;;;;5119838;27;19971;-32
2024/01/24 10:15:22;;;;;;;;;;;10.40;99.90;;;;;;5095045;28;20436;-33
2024/01/24 10:17:49;;;;;;;;;;;10.40;99.90;;;;;;5126701;27;19924;-34
2024/01/24 10:20:15;;;;;;;;;;;10.40;99.90;;;;;;5133531;27;19923;-32
2024/01/24 10:22:44;;;;;;;;;;;10.50;99.90;;;;;;5133587;27;19968;-33
2024/01/24 10:25:12;;;;;;;;;;;10.50;99.90;;;;;;5095284;28;20343;-32
2024/01/24 10:27:39;;;;;;;;;;;10.50;99.90;;;;;;5105652;27;20320;-34
2024/01/24 10:30:09;;;;;;;;;;;10.50;99.90;;;;;;5133412;27;19923;-32
2024/01/24 10:32:37;;;;;;;;;;;10.60;99.90;;;;;;5115275;28;19983;-34
2024/01/24 10:35:04;;;;;;;;;;;10.60;99.90;;;;;;5133723;27;19923;-32
2024/01/24 10:37:31;;;;;;;;;;;10.60;99.90;;;;;;5133476;27;19930;-32
2024/01/24 10:39:58;;;;;;;;;;;10.60;99.90;;;;;;5114957;28;20355;-31
2024/01/24 10:42:26;;;;;;;;;;;10.70;99.90;;;;;;5114938;28;19976;-32
2024/01/24 10:44:52;;;;;;;;;;;10.60;99.90;;;;;;5115294;28;19980;-32
2024/01/24 10:47:19;;;;;;;;;;;10.70;99.90;;;;;;5114915;28;19923;-33
2024/01/24 10:49:45;;;;;;;;;;;10.70;99.90;;;;;;5115523;28;20291;-32
2024/01/24 10:52:12;;;;;;;;;;;10.70;99.90;;;;;;5132810;28;19976;-32
2024/01/24 10:54:40;;;;;;;;;;;10.70;99.90;;;;;;5115235;28;19923;-32
2024/01/24 10:57:06;;;;;;;;;;;10.70;99.90;;;;;;5115002;28;19924;-32
2024/01/24 10:59:34;;;;;;;;;;;10.70;99.90;;;;;;5114949;28;19963;-33
2024/01/24 11:02:01;;;;;;;;;;;10.80;99.90;;;;;;5114757;28;20359;-33
2024/01/24 11:04:27;;;;;;;;;;;10.80;99.90;;;;;;5114997;28;20031;-32
2024/01/24 11:06:55;;;;;;;;;;;10.80;99.90;;;;;;5133122;28;19969;-32
2024/01/24 11:09:24;;;;;;;;;;;10.80;99.90;;;;;;5115046;28;20008;-32
2024/01/24 11:11:51;;;;;;;;;;;10.90;99.90;;;;;;5114973;28;19923;-32
2024/01/24 11:14:29;;;;;;;;;;;10.90;99.90;;;;;;5133047;28;19984;-32
2024/01/24 11:16:57;;;;;;;;;;;10.90;99.90;;;;;;5122403;27;19934;-32
2024/01/24 11:19:24;;;;;;;;;;;11.00;99.90;;;;;;5139518;27;19923;-31
2024/01/24 11:21:52;;;;;;;;;;;10.90;99.90;;;;;;5157817;27;19923;-32
2024/01/24 11:24:37;;;;;;;;;;;10.90;99.90;;;;;;5139604;27;19981;-33
2024/01/24 11:27:04;;;;;;;;;;;10.90;99.90;;;;;;5140972;27;19923;-34
2024/01/24 11:29:33;;;;;;;;;;;10.90;99.90;;;;;;5118744;27;19923;-32
2024/01/24 11:32:01;;;;;;;;;;;11.00;99.90;;;;;;5118649;27;19984;-33
2024/01/24 11:34:28;;;;;;;;;;;11.00;99.90;;;;;;5118675;27;20348;-31
2024/01/24 11:36:54;;;;;;;;;;;11.00;99.90;;;;;;5136907;27;20383;-32
2024/01/24 11:39:31;;;;;;;;;;;11.00;99.90;;;;;;5135934;27;19976;-31
2024/01/24 11:42:22;;;;;;;;;;;11.00;99.90;;;;;;5136981;27;19934;-31
2024/01/24 11:44:49;;;;;;;;;;;11.00;99.90;;;;;;5118012;27;19953;-31
2024/01/24 11:47:17;;;;;;;;;;;11.10;99.90;;;;;;5118472;27;19976;-32
2024/01/24 11:49:48;;;;;;;;;;;11.10;99.90;;;;;;5118213;27;19923;-32
2024/01/24 11:52:19;;;;;;;;;;;11.10;99.90;;;;;;5118127;27;19923;-31
2024/01/24 11:54:50;;;;;;;;;;;11.00;99.90;;;;;;5135511;27;19923;-33
2024/01/24 11:57:17;;;;;;;;;;;10.90;99.90;;;;;;5136201;27;19955;-33
2024/01/24 11:59:44;;;;;;;;;;;10.90;99.90;;;;;;5117022;27;20447;-32
2024/01/24 12:02:10;;;;;;;;;;;10.80;99.90;;;;;;5123720;27;19927;-31
2024/01/24 12:04:38;;;;;;;;;;;10.70;99.90;;;;;;5097530;28;19984;-32
2024/01/24 12:07:05;;;;;;;;;;;10.70;99.90;;;;;;5097060;28;19968;-33
2024/01/24 12:09:31;;;;;;;;;;;10.70;99.90;;;;;;5097635;28;19977;-33
2024/01/24 12:11:58;;;;;;;;;;;10.70;99.90;;;;;;5115308;28;20432;-31
2024/01/24 12:14:25;;;;;;;;;;;10.60;99.90;;;;;;5097019;28;19924;-32
2024/01/24 12:16:55;;;;;;;;;;;10.60;99.90;;;;;;5108701;27;20023;-33
2024/01/24 12:19:22;;;;;;;;;;;10.70;99.90;;;;;;5138280;27;19930;-32
2024/01/24 12:21:50;;;;;;;;;;;10.70;99.90;;;;;;5146192;27;19923;-32
2024/01/24 12:24:16;;;;;;;;;;;10.70;99.90;;;;;;5117757;27;19924;-32
2024/01/24 12:26:43;;;;;;;;;;;10.80;99.90;;;;;;5117807;27;20351;-33
2024/01/24 12:29:09;;;;;;;;;;;10.80;99.90;;;;;;5116339;27;19980;-32
2024/01/24 12:31:38;;;;;;;;;;;10.80;99.90;;;;;;5117629;27;19967;-32
2024/01/24 12:34:07;;;;;;;;;;;10.80;99.90;;;;;;5121946;27;19924;-32
2024/01/24 12:36:33;;;;;;;;;;;10.80;99.90;;;;;;5097128;28;19924;-34
2024/01/24 12:39:02;;;;;;;;;;;10.80;99.90;;;;;;5096977;28;19927;-33
2024/01/24 12:41:29;;;;;;;;;;;11.00;99.90;;;;;;5096754;28;20367;-32
2024/01/24 12:43:56;;;;;;;;;;;10.90;99.90;;;;;;5098671;27;19947;-31
2024/01/24 12:46:23;;;;;;;;;;;10.80;99.90;;;;;;5116194;27;19923;-32
2024/01/24 12:48:49;;;;;;;;;;;10.80;99.90;;;;;;5134651;27;19966;-32
2024/01/24 12:51:16;;;;;;;;;;;10.70;99.90;;;;;;5133568;27;20516;-32
2024/01/24 12:53:42;;;;;;;;;;;10.70;99.90;;;;;;5117214;27;19976;-32
2024/01/24 12:56:10;;;;;;;;;;;10.70;99.90;;;;;;5134346;27;20340;-33
2024/01/24 12:58:37;;;;;;;;;;;10.70;99.90;;;;;;5114523;27;20359;-33
2024/01/24 13:01:04;;;;;;;;;;;10.70;99.90;;;;;;5116539;27;19927;-32
2024/01/24 13:03:31;;;;;;;;;;;10.60;99.90;;;;;;5116664;27;19924;-33
2024/01/24 13:05:57;;;;;;;;;;;10.60;99.90;;;;;;5115956;27;19931;-32
2024/01/24 13:08:24;;;;;;;;;;;10.60;99.90;;;;;;5116617;27;19974;-35
2024/01/24 13:10:52;;;;;;;;;;;10.60;99.90;;;;;;5116967;27;19927;-32
2024/01/24 13:13:20;;;;;;;;;;;10.60;99.90;;;;;;5116118;27;20432;-32
2024/01/24 13:15:46;;;;;;;;;;;10.60;99.90;;;;;;5116195;27;19976;-33
2024/01/24 13:18:13;;;;;;;;;;;10.50;99.90;;;;;;5111408;27;19969;-33
2024/01/24 13:20:40;;;;;;;;;;;10.50;99.90;;;;;;5095883;28;19924;-33
2024/01/24 13:23:06;;;;;;;;;;;10.40;99.90;;;;;;5114359;28;19927;-32
2024/01/24 13:25:33;;;;;;;;;;;10.40;99.90;;;;;;5114354;27;19969;-31
2024/01/24 13:28:02;;;;;;;;;;;10.40;99.90;;;;;;5133515;27;20027;-32
2024/01/24 13:30:31;;;;;;;;;;;10.40;99.90;;;;;;5108829;27;20022;-32
2024/01/24 13:32:57;;;;;;;;;;;10.40;99.90;;;;;;5114383;27;19930;-32
2024/01/24 13:35:24;;;;;;;;;;;10.40;99.90;;;;;;5133065;27;19983;-32
2024/01/24 13:37:51;;;;;;;;;;;10.40;99.90;;;;;;5112433;27;19923;-32
2024/01/24 13:40:18;;;;;;;;;;;10.30;99.90;;;;;;5112334;27;19931;-33
2024/01/24 13:42:45;;;;;;;;;;;10.30;99.90;;;;;;5116275;27;20344;-32
2024/01/24 13:45:11;;;;;;;;;;;10.30;99.90;;;;;;5115050;27;19924;-33
2024/01/24 13:47:39;;;;;;;;;;;10.30;99.90;;;;;;5099632;28;19928;-33
2024/01/24 13:50:06;;;;;;;;;;;10.30;99.90;;;;;;5107520;27;19937;-33
2024/01/24 13:52:33;;;;;;;;;;;10.20;99.90;;;;;;5115938;27;20383;-33
2024/01/24 13:55:00;;;;;;;;;;;10.20;99.90;;;;;;5133873;27;19923;-32
2024/01/24 13:57:26;;;;;;;;;;;10.20;99.90;;;;;;5126581;27;19923;-32
2024/01/24 13:59:53;;;;;;;;;;;10.20;99.90;;;;;;5095370;28;19927;-31
2024/01/24 14:02:19;;;;;;;;;;;10.20;99.90;;;;;;5094855;28;19931;-33
2024/01/24 14:04:47;;;;;;;;;;;10.10;99.90;;;;;;5105285;27;19980;-32
2024/01/24 14:07:14;;;;;;;;;;;10.10;99.90;;;;;;5115656;27;19923;-32
2024/01/24 14:09:41;;;;;;;;;;;10.10;99.90;;;;;;5115485;27;20022;-32
2024/01/24 14:12:08;;;;;;;;;;;10.10;99.90;;;;;;5115316;27;20290;-32
2024/01/24 14:14:34;;;;;;;;;;;10.00;99.90;;;;;;5132911;27;19930;-30
2024/01/24 14:17:01;;;;;;;;;;;10.00;99.90;;;;;;5141152;27;20346;-34
2024/01/24 14:19:28;;;;;;;;;;;10.00;99.90;;;;;;5154253;27;20302;-31